createdAt,value
2022-09-10T00:00:11.904Z,81.85
2022-09-10T00:02:43.321Z,81.40
2022-09-10T00:05:18.733Z,81.66
2022-09-10T00:07:49.372Z,81.17
2022-09-10T00:10:20.606Z,82.19
2022-09-10T00:12:56.740Z,81.29
2022-09-10T00:15:36.093Z,81.74
2022-09-10T00:18:09.417Z,82.83
2022-09-10T00:20:49.121Z,83.54
2022-09-10T00:26:08.959Z,83.23
2022-09-10T00:28:44.807Z,83.20
2022-09-10T00:31:29.565Z,83.93
2022-09-10T00:34:14.750Z,84.51
2022-09-10T00:40:08.737Z,84.51
2022-09-10T00:42:42.240Z,82.74
2022-09-10T00:45:31.959Z,84.44
2022-09-10T00:48:35.573Z,83.49
2022-09-10T00:54:12.063Z,84.84
2022-09-10T00:56:43.846Z,85.23
2022-09-10T01:02:07.451Z,84.93
2022-09-10T01:04:48.775Z,84.53
2022-09-10T01:07:17.242Z,85.71
2022-09-10T01:09:50.775Z,84.36
2022-09-10T01:13:01.651Z,85.17
2022-09-10T01:15:59.217Z,85.41
2022-09-10T01:19:43.931Z,85.11
2022-09-10T01:22:36.212Z,84.70
2022-09-10T01:25:48.302Z,85.61
2022-09-10T01:28:47.460Z,84.80
2022-09-10T01:31:55.455Z,85.30
2022-09-10T01:34:49.734Z,84.91
2022-09-10T01:37:27.786Z,85.15
2022-09-10T01:40:02.262Z,86.48
2022-09-10T01:42:33.126Z,85.52
2022-09-10T01:45:19.155Z,86.78
2022-09-10T01:48:10.022Z,86.48
2022-09-10T01:51:09.043Z,85.74
2022-09-10T01:57:21.703Z,86.43
2022-09-10T02:00:29.222Z,86.69
2022-09-10T02:03:03.291Z,85.86
2022-09-10T02:05:51.023Z,85.35
2022-09-10T02:08:25.127Z,85.88
2022-09-10T02:11:08.690Z,85.50
2022-09-10T02:13:39.333Z,85.67
2022-09-10T02:16:20.983Z,83.46
2022-09-10T02:18:56.566Z,83.62
2022-09-10T02:21:35.809Z,83.25
2022-09-10T02:24:24.104Z,84.62
2022-09-10T02:26:54.775Z,85.52
2022-09-10T02:29:35.641Z,84.07
2022-09-10T02:32:10.933Z,84.29
2022-09-10T02:34:53.663Z,84.26
2022-09-10T02:37:33.661Z,83.28
2022-09-10T02:40:10.945Z,84.00
2022-09-10T02:43:01.146Z,83.94
2022-09-10T02:45:32.983Z,84.75
2022-09-10T02:48:04.734Z,81.08
2022-09-10T02:50:38.919Z,82.57
2022-09-10T02:53:09.821Z,82.32
2022-09-10T02:55:49.252Z,82.34
2022-09-10T02:58:27.486Z,82.96
2022-09-10T03:01:24.333Z,82.84
2022-09-10T03:04:11.859Z,83.38
2022-09-10T03:06:53.823Z,81.61
2022-09-10T03:09:25.064Z,82.36
2022-09-10T03:11:56.721Z,83.49
2022-09-10T03:14:26.967Z,83.59
2022-09-10T03:17:19.847Z,81.17
2022-09-10T03:19:49.319Z,80.73
2022-09-10T03:22:27.881Z,83.44
2022-09-10T03:25:03.261Z,83.82
2022-09-10T03:27:44.663Z,80.80
2022-09-10T03:30:17.126Z,82.77
2022-09-10T03:32:50.768Z,82.45
2022-09-10T03:35:21.888Z,82.10
2022-09-10T03:37:56.187Z,83.09
2022-09-10T03:40:36.544Z,82.15
2022-09-10T03:43:08.014Z,81.69
2022-09-10T03:45:39.335Z,82.95
2022-09-10T03:48:06.928Z,83.34
2022-09-10T03:50:43.503Z,83.71
2022-09-10T03:53:22.008Z,84.30
2022-09-10T03:55:51.492Z,84.01
2022-09-10T03:58:25.287Z,83.87
2022-09-10T04:01:05.126Z,82.53
2022-09-10T04:03:41.807Z,83.76
2022-09-10T04:06:37.920Z,84.17
2022-09-10T04:09:10.288Z,83.32
2022-09-10T04:11:42.494Z,83.58
2022-09-10T04:14:14.423Z,84.46
2022-09-10T04:16:46.359Z,85.49
2022-09-10T04:19:14.086Z,85.06
2022-09-10T04:21:45.223Z,84.76
2022-09-10T04:24:21.851Z,85.11
2022-09-10T04:26:52.679Z,84.40
2022-09-10T04:29:27.063Z,84.69
2022-09-10T04:32:00.109Z,84.18
2022-09-10T04:34:33.886Z,84.25
2022-09-10T04:37:01.613Z,84.65
2022-09-10T04:39:28.768Z,84.79
2022-09-10T04:41:58.441Z,84.47
2022-09-10T04:44:27.371Z,84.71
2022-09-10T04:46:55.907Z,84.94
2022-09-10T04:49:38.061Z,84.56
2022-09-10T04:52:23.214Z,84.79
2022-09-10T04:55:01.279Z,84.55
2022-09-10T04:57:29.785Z,84.38
2022-09-10T05:00:11.321Z,84.73
2022-09-10T05:02:49.742Z,84.25
2022-09-10T05:05:17.850Z,83.61
2022-09-10T05:07:46.584Z,83.27
2022-09-10T05:10:18.287Z,84.05
2022-09-10T05:12:51.343Z,84.43
2022-09-10T05:15:30.199Z,83.73
2022-09-10T05:18:01.293Z,84.10
2022-09-10T05:20:34.741Z,84.13
2022-09-10T05:23:10.608Z,83.99
2022-09-10T05:25:37.966Z,84.62
2022-09-10T05:28:07.386Z,84.76
2022-09-10T05:30:41.703Z,84.99
2022-09-10T05:36:16.741Z,84.83
2022-09-10T05:42:40.981Z,85.57
2022-09-10T05:46:06.334Z,86.73
2022-09-10T05:48:43.035Z,84.92
2022-09-10T05:58:14.124Z,84.78
2022-09-10T06:01:39.443Z,85.96
2022-09-10T06:04:39.063Z,85.58
2022-09-10T06:07:31.812Z,86.72
2022-09-10T06:14:00.864Z,86.51
2022-09-10T06:24:31.183Z,85.96
2022-09-10T06:27:43.281Z,85.10
2022-09-10T06:31:10.282Z,84.85
2022-09-10T06:34:38.067Z,85.26
2022-09-10T06:40:09.843Z,84.87
2022-09-10T06:43:15.311Z,84.73
2022-09-10T06:46:24.843Z,84.70
2022-09-10T06:49:15.192Z,85.23
2022-09-10T06:51:53.955Z,84.58
2022-09-10T06:54:51.842Z,84.25
2022-09-10T06:57:19.083Z,84.35
2022-09-10T07:00:13.264Z,84.06
2022-09-10T07:08:26.181Z,84.80
2022-09-10T07:10:59.701Z,83.55
2022-09-10T07:13:36.123Z,83.79
2022-09-10T07:16:27.146Z,83.68
2022-09-10T07:19:04.641Z,83.67
2022-09-10T07:22:01.352Z,83.28
2022-09-10T07:24:30.071Z,83.33
2022-09-10T07:27:06.108Z,83.26
2022-09-10T07:29:39.231Z,82.96
2022-09-10T07:32:11.634Z,83.15
2022-09-10T07:34:40.511Z,82.37
2022-09-10T07:37:10.621Z,83.21
2022-09-10T07:45:17.280Z,82.77
2022-09-10T07:47:48.563Z,81.94
2022-09-10T07:50:16.673Z,82.54
2022-09-10T07:52:44.262Z,81.18
2022-09-10T07:55:12.154Z,81.19
2022-09-10T07:57:40.912Z,81.99
2022-09-10T08:00:15.302Z,80.49
2022-09-10T08:02:43.751Z,80.15
2022-09-10T08:05:12.111Z,79.95
2022-09-10T08:07:40.621Z,78.44
2022-09-10T08:10:10.237Z,79.21
2022-09-10T08:12:40.005Z,78.12
2022-09-10T08:15:10.981Z,78.96
2022-09-10T08:17:38.683Z,79.88
2022-09-10T08:20:08.587Z,77.52
2022-09-10T08:22:36.273Z,77.83
2022-09-10T08:25:03.868Z,77.48
2022-09-10T08:27:34.751Z,79.66
2022-09-10T08:30:01.830Z,76.76
2022-09-10T08:32:29.140Z,74.86
2022-09-10T08:34:56.399Z,76.45
2022-09-10T08:37:23.546Z,80.27
2022-09-10T08:39:50.770Z,75.79
2022-09-10T08:42:22.794Z,76.69
2022-09-10T08:44:55.032Z,75.88
2022-09-10T08:47:31.307Z,78.84
2022-09-10T08:50:11.921Z,75.03
2022-09-10T08:52:44.772Z,77.28
2022-09-10T08:55:17.824Z,76.85
2022-09-10T08:57:50.113Z,73.17
2022-09-10T09:00:34.792Z,73.61
2022-09-10T09:03:06.312Z,73.42
2022-09-10T09:05:58.911Z,72.45
2022-09-10T09:08:35.113Z,73.38
2022-09-10T09:11:21.003Z,71.46
2022-09-10T09:14:08.947Z,69.23
2022-09-10T09:17:06.247Z,69.02
2022-09-10T09:19:35.071Z,73.28
2022-09-10T09:22:40.104Z,68.86
2022-09-10T09:25:30.587Z,67.27
2022-09-10T09:27:58.602Z,71.24
2022-09-10T09:30:35.886Z,69.36
2022-09-10T09:33:17.284Z,67.59
2022-09-10T09:36:02.165Z,67.12
2022-09-10T09:38:41.672Z,70.87
2022-09-10T09:41:24.711Z,67.44
2022-09-10T09:44:04.722Z,65.79
2022-09-10T09:46:31.825Z,67.32
2022-09-10T09:49:01.911Z,67.59
2022-09-10T09:51:35.913Z,65.90
2022-09-10T09:57:01.833Z,67.86
2022-09-10T09:59:31.707Z,65.28
2022-09-10T10:02:24.259Z,67.06
2022-09-10T10:05:07.471Z,64.84
2022-09-10T10:07:39.192Z,67.89
2022-09-10T10:10:08.442Z,69.89
2022-09-10T10:12:43.153Z,65.85
2022-09-10T10:15:38.217Z,65.72
2022-09-10T10:18:23.599Z,66.56
2022-09-10T10:21:13.993Z,68.86
2022-09-10T10:23:43.241Z,67.43
2022-09-10T10:26:24.281Z,63.97
2022-09-10T10:28:56.202Z,66.97
2022-09-10T10:31:23.935Z,64.46
2022-09-10T10:34:22.483Z,66.90
2022-09-10T10:37:15.141Z,64.98
2022-09-10T10:39:48.716Z,65.21
2022-09-10T10:42:56.187Z,65.43
2022-09-10T10:45:52.142Z,62.29
2022-09-10T10:48:35.363Z,63.45
2022-09-10T10:51:09.842Z,65.02
2022-09-10T10:53:58.811Z,65.06
2022-09-10T10:56:36.443Z,65.67
2022-09-10T10:59:30.307Z,65.78
2022-09-10T11:02:25.517Z,65.70
2022-09-10T11:04:55.522Z,63.42
2022-09-10T11:07:39.595Z,62.59
2022-09-10T11:10:19.990Z,64.50
2022-09-10T11:12:51.837Z,64.58
2022-09-10T11:15:29.382Z,62.05
2022-09-10T11:18:07.476Z,63.78
2022-09-10T11:20:50.354Z,63.92
2022-09-10T11:23:46.428Z,64.58
2022-09-10T11:26:27.787Z,63.44
2022-09-10T11:29:21.269Z,63.99
2022-09-10T11:32:26.200Z,63.27
2022-09-10T11:35:04.434Z,63.47
2022-09-10T11:37:40.791Z,62.84
2022-09-10T11:40:18.481Z,61.12
2022-09-10T11:42:53.440Z,61.31
2022-09-10T11:45:32.274Z,60.02
2022-09-10T11:48:29.451Z,60.06
2022-09-10T11:51:07.586Z,60.49
2022-09-10T11:53:37.402Z,62.09
2022-09-10T11:56:28.906Z,60.54
2022-09-10T11:59:22.226Z,61.79
2022-09-10T12:02:30.993Z,60.54
2022-09-10T12:05:08.325Z,59.35
2022-09-10T12:08:11.425Z,61.30
2022-09-10T12:11:17.164Z,60.18
2022-09-10T12:13:46.246Z,59.80
2022-09-10T12:16:35.243Z,60.97
2022-09-10T12:19:08.753Z,59.54
2022-09-10T12:21:41.929Z,60.81
2022-09-10T12:24:32.617Z,60.10
2022-09-10T12:27:05.607Z,61.30
2022-09-10T12:29:38.203Z,61.72
2022-09-10T12:32:20.284Z,62.74
2022-09-10T12:34:51.683Z,62.92
2022-09-10T12:37:28.915Z,63.25
2022-09-10T12:40:25.948Z,61.25
2022-09-10T12:42:59.162Z,60.48
2022-09-10T12:46:16.819Z,61.64
2022-09-10T12:48:59.153Z,62.52
2022-09-10T12:51:41.460Z,65.05
2022-09-10T12:54:33.244Z,67.10
2022-09-10T12:57:04.246Z,67.91
2022-09-10T13:00:02.016Z,71.11
2022-09-10T13:02:50.083Z,72.51
2022-09-10T13:05:30.831Z,74.54
2022-09-10T13:08:12.949Z,71.93
2022-09-10T13:10:43.051Z,73.01
2022-09-10T13:13:39.097Z,75.31
2022-09-10T13:16:14.806Z,71.49
2022-09-10T13:18:42.640Z,71.71
2022-09-10T13:21:32.422Z,71.03
2022-09-10T13:24:04.247Z,70.58
2022-09-10T13:26:40.253Z,70.00
2022-09-10T13:29:39.006Z,72.33
2022-09-10T13:32:19.129Z,70.18
2022-09-10T13:35:01.304Z,70.16
2022-09-10T13:37:43.702Z,75.27
2022-09-10T13:40:33.402Z,72.50
2022-09-10T13:43:20.046Z,73.13
2022-09-10T13:46:00.048Z,71.77
2022-09-10T13:48:42.021Z,74.21
2022-09-10T13:51:09.486Z,72.91
2022-09-10T13:53:41.515Z,72.62
2022-09-10T13:56:19.941Z,72.70
2022-09-10T13:58:53.927Z,72.21
2022-09-10T14:01:21.177Z,74.17
2022-09-10T14:03:48.330Z,72.92
2022-09-10T14:06:25.422Z,72.20
2022-09-10T14:09:02.180Z,75.35
2022-09-10T14:11:34.120Z,75.70
2022-09-10T14:14:13.091Z,70.55
2022-09-10T14:16:51.650Z,71.02
2022-09-10T14:19:37.932Z,68.60
2022-09-10T14:22:09.819Z,68.97
2022-09-10T14:24:40.309Z,69.85
2022-09-10T14:27:19.390Z,66.77
2022-09-10T14:29:47.089Z,67.39
2022-09-10T14:32:28.895Z,65.90
2022-09-10T14:34:56.509Z,65.40
2022-09-10T14:37:39.180Z,63.83
2022-09-10T14:40:17.994Z,67.05
2022-09-10T14:42:46.909Z,63.40
2022-09-10T14:45:40.070Z,65.66
2022-09-10T14:48:37.312Z,62.09
2022-09-10T14:51:24.974Z,61.85
2022-09-10T14:53:52.970Z,64.98
2022-09-10T14:56:33.007Z,63.14
2022-09-10T14:59:12.196Z,63.05
2022-09-10T15:01:42.320Z,63.76
2022-09-10T15:04:15.840Z,66.10
2022-09-10T15:06:46.220Z,67.07
2022-09-10T15:09:14.070Z,66.16
2022-09-10T15:11:52.504Z,66.45
2022-09-10T15:14:19.784Z,64.83
2022-09-10T15:16:49.149Z,65.68
2022-09-10T15:19:16.831Z,64.85
2022-09-10T15:21:44.219Z,65.84
2022-09-10T15:24:15.351Z,66.89
2022-09-10T15:26:42.990Z,67.14
2022-09-10T15:29:10.814Z,68.18
2022-09-10T15:31:39.061Z,69.37
2022-09-10T15:34:08.069Z,69.33
2022-09-10T15:36:37.409Z,71.75
2022-09-10T15:39:06.174Z,72.73
2022-09-10T15:41:33.341Z,73.81
2022-09-10T15:44:03.290Z,72.44
2022-09-10T15:46:30.471Z,73.38
2022-09-10T15:49:00.261Z,72.35
2022-09-10T15:51:27.327Z,71.81
2022-09-10T15:53:55.171Z,71.54
2022-09-10T15:56:27.191Z,70.93
2022-09-10T15:58:57.181Z,71.96
2022-09-10T16:01:28.407Z,71.97
2022-09-10T16:03:58.138Z,71.41
2022-09-10T16:06:28.294Z,71.53
2022-09-10T16:08:57.584Z,72.63
2022-09-10T16:11:25.728Z,73.15
2022-09-10T16:13:53.180Z,73.35
2022-09-10T16:16:22.813Z,71.96
2022-09-10T16:18:53.808Z,73.18
2022-09-10T16:21:23.551Z,72.92
2022-09-10T16:23:52.126Z,72.69
2022-09-10T16:26:24.094Z,73.84
2022-09-10T16:28:52.989Z,74.36
2022-09-10T16:31:28.438Z,72.48
2022-09-10T16:33:58.934Z,72.21
2022-09-10T16:36:27.422Z,71.64
2022-09-10T16:38:56.528Z,71.96
2022-09-10T16:41:24.975Z,73.27
2022-09-10T16:43:52.372Z,73.20
2022-09-10T16:46:19.639Z,72.78
2022-09-10T16:48:47.367Z,73.07
2022-09-10T16:51:17.209Z,72.40
2022-09-10T16:53:47.241Z,72.04
2022-09-10T16:56:16.439Z,72.06
2022-09-10T16:58:47.769Z,72.08
2022-09-10T17:01:16.007Z,71.21
2022-09-10T17:03:45.801Z,71.20
2022-09-10T17:06:21.982Z,70.34
2022-09-10T17:08:50.142Z,71.35
